Time,TemperatureF,DewpointF,PressureIn,WindDirection,WindDirectionDegrees,WindSpeedMPH,WindSpeedGustMPH,Humidity,HourlyPrecipIn,Conditions,Clouds,dailyrainin,SoftwareType,DateUTC
2013-01-08 00:02:00,45.1,42.6,30.23,NNW,333,1.0,2.0,91,0.00,,,0.00,meteohub,2013-01-08 08:02:00,
2013-01-08 00:07:00,45.1,42.6,30.23,North,359,2.0,3.0,91,0.00,,,0.00,meteohub,2013-01-08 08:07:00,
2013-01-08 00:12:00,45.1,43.0,30.24,NNW,332,4.0,4.0,92,0.00,,,0.00,meteohub,2013-01-08 08:12:00,
2013-01-08 00:17:00,45.0,42.8,30.24,NNW,332,4.0,5.0,92,0.00,,,0.00,meteohub,2013-01-08 08:17:00,
2013-01-08 00:22:00,45.1,43.0,30.24,NNW,330,2.0,5.0,92,0.00,,,0.00,meteohub,2013-01-08 08:22:00,
2013-01-08 00:28:00,45.1,43.0,30.24,NNW,332,3.0,5.0,92,0.00,,,0.00,meteohub,2013-01-08 08:28:00,
2013-01-08 00:33:00,45.1,43.0,30.24,NNW,335,2.0,5.0,92,0.00,,,0.00,meteohub,2013-01-08 08:33:00,
2013-01-08 00:38:00,45.0,42.8,30.24,NNW,337,2.0,5.0,92,0.00,,,0.00,meteohub,2013-01-08 08:38:00,
2013-01-08 00:43:00,45.0,42.8,30.25,NNW,335,2.0,5.0,92,0.00,,,0.00,meteohub,2013-01-08 08:43:00,
2013-01-08 00:48:00,44.8,42.6,30.25,NNW,335,0.0,4.0,92,0.00,,,0.00,meteohub,2013-01-08 08:48:00,
2013-01-08 00:53:00,44.8,42.6,30.25,NNW,335,2.0,4.0,92,0.00,,,0.00,meteohub,2013-01-08 08:53:00,
2013-01-08 00:58:00,44.8,42.6,30.25,NNW,334,2.0,4.0,92,0.00,,,0.00,meteohub,2013-01-08 08:58:00,
2013-01-08 01:03:00,44.8,42.6,30.25,NNW,335,0.0,3.0,92,0.00,,,0.00,meteohub,2013-01-08 09:03:00,
2013-01-08 01:08:00,44.8,42.6,30.25,NNW,335,0.0,3.0,92,0.00,,,0.00,meteohub,2013-01-08 09:08:00,
2013-01-08 01:13:00,44.6,42.4,30.25,NNW,335,0.0,3.0,92,0.00,,,0.00,meteohub,2013-01-08 09:13:00,
2013-01-08 01:18:00,44.8,42.6,30.25,NNW,336,0.0,2.0,92,0.00,,,0.00,meteohub,2013-01-08 09:18:00,
2013-01-08 01:23:00,44.6,42.4,30.25,NNW,334,1.0,1.0,92,0.00,,,0.00,meteohub,2013-01-08 09:23:00,
2013-01-08 01:28:00,44.6,42.4,30.25,NNW,335,2.0,3.0,92,0.00,,,0.00,meteohub,2013-01-08 09:28:00,
2013-01-08 01:33:00,44.4,42.3,30.25,NNW,337,1.0,3.0,92,0.00,,,0.00,meteohub,2013-01-08 09:33:00,
2013-01-08 01:38:00,44.4,42.3,30.25,NNW,336,0.0,3.0,92,0.00,,,0.00,meteohub,2013-01-08 09:38:00,
2013-01-08 01:43:00,44.2,42.1,30.25,NNW,335,0.0,4.0,92,0.00,,,0.00,meteohub,2013-01-08 09:43:00,
2013-01-08 01:48:00,44.1,42.1,30.25,NNW,335,1.0,4.0,93,0.00,,,0.00,meteohub,2013-01-08 09:48:00,
2013-01-08 01:53:00,44.1,41.9,30.25,NNW,335,3.0,4.0,92,0.00,,,0.00,meteohub,2013-01-08 09:53:00,
2013-01-08 01:58:00,43.9,41.7,30.25,NNW,335,1.0,3.0,92,0.00,,,0.00,meteohub,2013-01-08 09:58:00,
2013-01-08 02:03:00,43.7,41.7,30.25,NNW,333,0.0,3.0,93,0.00,,,0.00,meteohub,2013-01-08 10:03:00,
2013-01-08 02:08:00,43.5,41.7,30.24,NNW,334,0.0,3.0,93,0.00,,,0.00,meteohub,2013-01-08 10:08:00,
2013-01-08 02:13:00,43.5,41.7,30.24,NNW,335,1.0,1.0,93,0.00,,,0.00,meteohub,2013-01-08 10:13:00,
2013-01-08 02:18:00,43.3,41.5,30.25,NNW,337,0.0,0.0,93,0.00,,,0.00,meteohub,2013-01-08 10:18:00,
2013-01-08 02:23:00,43.3,41.5,30.25,NNW,336,1.0,2.0,93,0.00,,,0.00,meteohub,2013-01-08 10:23:00,
2013-01-08 02:28:00,43.3,41.5,30.25,NNW,334,0.0,2.0,93,0.00,,,0.00,meteohub,2013-01-08 10:28:00,
2013-01-08 02:33:00,43.3,41.5,30.25,NNW,334,0.0,2.0,93,0.00,,,0.00,meteohub,2013-01-08 10:33:00,
2013-01-08 02:38:00,43.2,41.4,30.24,NNW,336,0.0,2.0,93,0.00,,,0.00,meteohub,2013-01-08 10:38:00,
2013-01-08 02:43:00,43.2,41.4,30.24,North,359,0.0,2.0,93,0.00,,,0.00,meteohub,2013-01-08 10:43:00,
2013-01-08 02:49:00,43.3,41.7,30.24,NNW,335,0.0,1.0,94,0.00,,,0.00,meteohub,2013-01-08 10:49:00,
2013-01-08 02:54:00,43.3,41.7,30.24,NNW,337,0.0,1.0,94,0.00,,,0.00,meteohub,2013-01-08 10:54:00,
2013-01-08 02:59:00,43.2,41.4,30.25,NNW,336,2.0,2.0,93,0.00,,,0.00,meteohub,2013-01-08 10:59:00,
2013-01-08 03:04:00,43.2,41.4,30.24,NNW,336,1.0,4.0,93,0.00,,,0.00,meteohub,2013-01-08 11:04:00,
2013-01-08 03:09:00,43.2,41.4,30.24,NNW,336,2.0,4.0,93,0.00,,,0.00,meteohub,2013-01-08 11:09:00,
2013-01-08 03:14:00,43.2,41.4,30.24,NNW,335,1.0,4.0,93,0.00,,,0.00,meteohub,2013-01-08 11:14:00,
2013-01-08 03:19:00,43.0,41.2,30.24,NNW,335,0.0,3.0,93,0.00,,,0.00,meteohub,2013-01-08 11:19:00,
2013-01-08 03:24:00,42.8,41.0,30.24,NNW,337,0.0,3.0,93,0.00,,,0.00,meteohub,2013-01-08 11:24:00,
2013-01-08 03:29:00,42.6,41.0,30.24,NNW,335,0.0,3.0,94,0.00,,,0.00,meteohub,2013-01-08 11:29:00,
2013-01-08 03:34:00,42.8,41.2,30.24,NNW,335,2.0,3.0,94,0.00,,,0.00,meteohub,2013-01-08 11:34:00,
2013-01-08 03:39:00,42.6,41.0,30.24,NNW,334,2.0,3.0,94,0.00,,,0.00,meteohub,2013-01-08 11:39:00,
2013-01-08 03:44:00,42.6,41.0,30.24,NNW,337,3.0,3.0,94,0.00,,,0.00,meteohub,2013-01-08 11:44:00,
2013-01-08 03:49:00,42.6,41.0,30.25,NNW,337,5.0,5.0,94,0.00,,,0.00,meteohub,2013-01-08 11:49:00,
2013-01-08 03:54:00,42.8,41.2,30.25,NNW,337,3.0,6.0,94,0.00,,,0.00,meteohub,2013-01-08 11:54:00,
2013-01-08 03:59:00,43.0,41.4,30.25,NNW,339,3.0,6.0,94,0.00,,,0.00,meteohub,2013-01-08 11:59:00,
2013-01-08 04:04:00,43.2,41.5,30.25,NNW,339,3.0,6.0,94,0.00,,,0.00,meteohub,2013-01-08 12:04:00,
2013-01-08 04:09:00,43.3,41.7,30.24,NNW,341,2.0,5.0,94,0.00,,,0.00,meteohub,2013-01-08 12:09:00,
2013-01-08 04:14:00,43.5,41.9,30.24,NNW,338,5.0,5.0,94,0.00,,,0.00,meteohub,2013-01-08 12:14:00,
2013-01-08 04:19:00,43.5,41.9,30.24,NNW,341,6.0,6.0,94,0.00,,,0.00,meteohub,2013-01-08 12:19:00,
2013-01-08 04:24:00,43.3,41.7,30.24,NNW,344,3.0,7.0,94,0.00,,,0.00,meteohub,2013-01-08 12:24:00,
2013-01-08 04:30:00,43.2,41.5,30.24,NNW,343,3.0,7.0,94,0.00,,,0.00,meteohub,2013-01-08 12:30:00,
2013-01-08 04:35:00,43.2,41.5,30.24,NNW,343,2.0,7.0,94,0.00,,,0.00,meteohub,2013-01-08 12:35:00,
2013-01-08 04:40:00,43.0,41.4,30.24,NNW,342,2.0,5.0,94,0.00,,,0.00,meteohub,2013-01-08 12:40:00,
2013-01-08 04:45:00,43.0,41.4,30.23,NNW,341,3.0,5.0,94,0.00,,,0.00,meteohub,2013-01-08 12:45:00,
2013-01-08 04:50:00,43.0,41.4,30.24,NNW,343,2.0,5.0,94,0.00,,,0.00,meteohub,2013-01-08 12:50:00,
2013-01-08 04:55:00,43.0,41.4,30.24,NNW,337,3.0,5.0,94,0.00,,,0.00,meteohub,2013-01-08 12:55:00,
2013-01-08 05:00:00,43.0,41.4,30.23,NNW,332,4.0,5.0,94,0.00,,,0.00,meteohub,2013-01-08 13:00:00,
2013-01-08 05:05:00,43.2,41.5,30.23,NW,323,6.0,6.0,94,0.00,,,0.00,meteohub,2013-01-08 13:05:00,
2013-01-08 05:10:00,43.2,41.5,30.23,NW,326,3.0,8.0,94,0.00,,,0.00,meteohub,2013-01-08 13:10:00,
2013-01-08 05:15:00,43.2,41.5,30.23,NW,320,7.0,9.0,94,0.00,,,0.00,meteohub,2013-01-08 13:15:00,
2013-01-08 05:20:00,43.2,41.5,30.24,NW,323,3.0,9.0,94,0.00,,,0.00,meteohub,2013-01-08 13:20:00,
2013-01-08 05:25:00,43.2,41.5,30.24,NW,322,6.0,9.0,94,0.00,,,0.00,meteohub,2013-01-08 13:25:00,
2013-01-08 05:30:00,43.3,41.7,30.24,NW,323,5.0,8.0,94,0.00,,,0.00,meteohub,2013-01-08 13:30:00,
2013-01-08 05:35:00,43.5,41.9,30.24,NNW,332,5.0,8.0,94,0.00,,,0.00,meteohub,2013-01-08 13:35:00,
2013-01-08 05:40:00,43.5,41.9,30.24,NNW,339,6.0,8.0,94,0.00,,,0.00,meteohub,2013-01-08 13:40:00,
2013-01-08 05:45:00,43.5,41.9,30.24,NNW,345,4.0,8.0,94,0.00,,,0.00,meteohub,2013-01-08 13:45:00,
2013-01-08 05:50:00,43.5,41.9,30.24,NNW,345,3.0,8.0,94,0.00,,,0.00,meteohub,2013-01-08 13:50:00,
2013-01-08 05:55:00,43.3,41.7,30.24,NNW,347,3.0,6.0,94,0.00,,,0.00,meteohub,2013-01-08 13:55:00,
2013-01-08 06:00:00,43.3,41.7,30.24,NNW,345,5.0,6.0,94,0.00,,,0.00,meteohub,2013-01-08 14:00:00,
2013-01-08 06:05:00,43.2,41.5,30.24,NNW,343,2.0,6.0,94,0.00,,,0.00,meteohub,2013-01-08 14:05:00,
2013-01-08 06:10:00,43.0,41.4,30.24,NNW,341,1.0,6.0,94,0.00,,,0.00,meteohub,2013-01-08 14:10:00,
2013-01-08 06:16:00,43.0,41.4,30.24,NNW,339,2.0,7.0,94,0.00,,,0.00,meteohub,2013-01-08 14:16:00,
2013-01-08 06:21:00,42.8,41.2,30.24,North,359,3.0,7.0,94,0.00,,,0.00,meteohub,2013-01-08 14:21:00,
2013-01-08 06:26:00,42.6,41.0,30.24,NNW,336,3.0,7.0,94,0.00,,,0.00,meteohub,2013-01-08 14:26:00,
2013-01-08 06:31:00,42.6,41.0,30.25,NNW,336,5.0,8.0,94,0.00,,,0.00,meteohub,2013-01-08 14:31:00,
2013-01-08 06:36:00,42.8,41.2,30.25,NNW,333,5.0,9.0,94,0.00,,,0.00,meteohub,2013-01-08 14:36:00,
2013-01-08 06:41:00,42.8,41.2,30.25,NNW,328,6.0,9.0,94,0.01,,,0.01,meteohub,2013-01-08 14:41:00,
2013-01-08 06:46:00,42.6,41.0,30.25,NNW,327,6.0,9.0,94,0.01,,,0.01,meteohub,2013-01-08 14:46:00,
2013-01-08 06:51:00,42.6,41.0,30.25,NNW,337,7.0,9.0,94,0.01,,,0.01,meteohub,2013-01-08 14:51:00,
2013-01-08 06:56:00,42.6,41.0,30.25,NNW,339,6.0,9.0,94,0.01,,,0.01,meteohub,2013-01-08 14:56:00,
2013-01-08 07:01:00,42.6,41.0,30.25,NNW,344,7.0,9.0,94,0.01,,,0.01,meteohub,2013-01-08 15:01:00,
2013-01-08 07:06:00,42.6,41.0,30.25,NNW,334,6.0,8.0,94,0.01,,,0.01,meteohub,2013-01-08 15:06:00,
2013-01-08 07:11:00,42.8,41.2,30.25,North,359,5.0,8.0,94,0.01,,,0.01,meteohub,2013-01-08 15:11:00,
2013-01-08 07:16:00,42.8,41.2,30.25,NW,317,3.0,8.0,94,0.01,,,0.01,meteohub,2013-01-08 15:16:00,
2013-01-08 07:21:00,42.6,41.0,30.25,NNW,332,5.0,7.0,94,0.01,,,0.01,meteohub,2013-01-08 15:21:00,
2013-01-08 07:26:00,42.6,41.0,30.26,NNW,340,5.0,8.0,94,0.01,,,0.01,meteohub,2013-01-08 15:26:00,
2013-01-08 07:31:00,42.6,41.0,30.26,NNW,344,7.0,8.0,94,0.01,,,0.01,meteohub,2013-01-08 15:31:00,
2013-01-08 07:36:00,42.6,41.0,30.26,North,359,8.0,9.0,94,0.00,,,0.01,meteohub,2013-01-08 15:36:00,
2013-01-08 07:41:00,42.8,41.2,30.26,North,349,8.0,10.0,94,0.00,,,0.01,meteohub,2013-01-08 15:41:00,
2013-01-08 07:46:00,42.8,41.2,30.26,North,359,7.0,10.0,94,0.00,,,0.01,meteohub,2013-01-08 15:46:00,
2013-01-08 07:51:00,42.8,41.2,30.26,North,4,6.0,10.0,94,0.00,,,0.01,meteohub,2013-01-08 15:51:00,
2013-01-08 07:56:00,42.8,41.2,30.26,North,359,5.0,10.0,94,0.00,,,0.01,meteohub,2013-01-08 15:56:00,
2013-01-08 08:01:00,42.8,41.2,30.26,NNW,339,5.0,10.0,94,0.00,,,0.01,meteohub,2013-01-08 16:01:00,
2013-01-08 08:06:00,43.0,41.4,30.27,NNW,343,4.0,9.0,94,0.00,,,0.01,meteohub,2013-01-08 16:06:00,
2013-01-08 08:11:00,43.0,41.4,30.27,North,359,4.0,9.0,94,0.00,,,0.01,meteohub,2013-01-08 16:11:00,
2013-01-08 08:16:00,43.2,41.5,30.27,NNW,339,3.0,7.0,94,0.00,,,0.01,meteohub,2013-01-08 16:16:00,
2013-01-08 08:22:00,43.2,41.5,30.27,North,359,3.0,6.0,94,0.00,,,0.01,meteohub,2013-01-08 16:22:00,
2013-01-08 08:27:00,43.3,41.7,30.27,NNW,335,4.0,6.0,94,0.00,,,0.01,meteohub,2013-01-08 16:27:00,
2013-01-08 08:32:00,43.5,41.9,30.27,NNW,335,5.0,7.0,94,0.00,,,0.01,meteohub,2013-01-08 16:32:00,
2013-01-08 08:37:00,43.5,41.7,30.27,NNW,338,7.0,8.0,93,0.00,,,0.01,meteohub,2013-01-08 16:37:00,
2013-01-08 08:42:00,43.9,41.9,30.27,NNW,330,5.0,8.0,93,0.00,,,0.01,meteohub,2013-01-08 16:42:00,
2013-01-08 08:47:00,44.1,42.1,30.28,NW,321,5.0,8.0,93,0.00,,,0.01,meteohub,2013-01-08 16:47:00,
2013-01-08 08:52:00,43.9,41.9,30.28,North,359,7.0,9.0,93,0.00,,,0.01,meteohub,2013-01-08 16:52:00,
2013-01-08 08:57:00,43.9,41.9,30.28,NW,324,8.0,9.0,93,0.00,,,0.01,meteohub,2013-01-08 16:57:00,
2013-01-08 09:02:00,43.9,42.3,30.28,NNW,328,7.0,9.0,94,0.00,,,0.01,meteohub,2013-01-08 17:02:00,
2013-01-08 09:07:00,44.1,42.4,30.28,NNW,333,2.0,9.0,94,0.00,,,0.01,meteohub,2013-01-08 17:07:00,
2013-01-08 09:12:00,44.4,42.8,30.28,North,359,6.0,10.0,94,0.00,,,0.01,meteohub,2013-01-08 17:12:00,
2013-01-08 09:17:00,45.0,43.7,30.29,NNW,327,4.0,10.0,95,0.00,,,0.01,meteohub,2013-01-08 17:17:00,
2013-01-08 09:22:00,45.7,44.1,30.29,NW,322,3.0,10.0,94,0.00,,,0.01,meteohub,2013-01-08 17:22:00,
2013-01-08 09:27:00,46.0,44.4,30.29,NW,325,6.0,9.0,94,0.00,,,0.01,meteohub,2013-01-08 17:27:00,
2013-01-08 09:32:00,46.6,44.6,30.29,North,359,6.0,9.0,93,0.00,,,0.01,meteohub,2013-01-08 17:32:00,
2013-01-08 09:37:00,46.9,44.8,30.29,NW,324,7.0,9.0,92,0.00,,,0.01,meteohub,2013-01-08 17:37:00,
2013-01-08 09:42:00,47.1,44.6,30.29,NW,326,5.0,9.0,91,0.00,,,0.01,meteohub,2013-01-08 17:42:00,
2013-01-08 09:47:00,47.7,45.1,30.30,North,359,7.0,8.0,91,0.00,,,0.01,meteohub,2013-01-08 17:47:00,
2013-01-08 09:52:00,48.0,45.1,30.30,NW,314,4.0,8.0,90,0.00,,,0.01,meteohub,2013-01-08 17:52:00,
2013-01-08 09:57:00,48.4,45.3,30.30,NW,319,3.0,8.0,89,0.00,,,0.01,meteohub,2013-01-08 17:57:00,
2013-01-08 10:02:00,48.6,45.1,30.30,NW,314,7.0,8.0,88,0.00,,,0.01,meteohub,2013-01-08 18:02:00,
2013-01-08 10:07:00,48.7,45.3,30.30,NNW,332,7.0,9.0,88,0.00,,,0.01,meteohub,2013-01-08 18:07:00,
2013-01-08 10:12:00,48.9,45.1,30.30,NNW,337,8.0,9.0,87,0.00,,,0.01,meteohub,2013-01-08 18:12:00,
2013-01-08 10:17:00,49.3,45.5,30.30,NNW,331,6.0,9.0,87,0.00,,,0.01,meteohub,2013-01-08 18:17:00,
2013-01-08 10:22:00,49.3,45.5,30.30,NNW,341,6.0,10.0,87,0.00,,,0.01,meteohub,2013-01-08 18:22:00,
2013-01-08 10:28:00,49.5,45.7,30.29,NNW,330,5.0,10.0,87,0.00,,,0.01,meteohub,2013-01-08 18:28:00,
2013-01-08 10:33:00,49.8,46.0,30.29,NW,323,5.0,9.0,87,0.00,,,0.01,meteohub,2013-01-08 18:33:00,
2013-01-08 10:38:00,50.5,46.6,30.28,NW,316,5.0,9.0,86,0.00,,,0.01,meteohub,2013-01-08 18:38:00,
2013-01-08 10:43:00,51.1,46.8,30.28,NW,322,2.0,8.0,85,0.00,,,0.01,meteohub,2013-01-08 18:43:00,
2013-01-08 10:48:00,51.4,46.8,30.27,NW,317,5.0,8.0,84,0.00,,,0.01,meteohub,2013-01-08 18:48:00,
2013-01-08 10:53:00,52.0,46.6,30.28,NW,324,6.0,7.0,82,0.00,,,0.01,meteohub,2013-01-08 18:53:00,
2013-01-08 10:58:00,52.3,46.9,30.27,NW,322,1.0,8.0,82,0.00,,,0.01,meteohub,2013-01-08 18:58:00,
2013-01-08 11:03:00,52.9,46.9,30.27,NW,318,4.0,8.0,80,0.00,,,0.01,meteohub,2013-01-08 19:03:00,
2013-01-08 11:08:00,53.4,47.5,30.27,NNW,334,3.0,8.0,80,0.00,,,0.01,meteohub,2013-01-08 19:08:00,
2013-01-08 11:13:00,53.8,47.1,30.26,NNW,335,7.0,8.0,78,0.00,,,0.01,meteohub,2013-01-08 19:13:00,
2013-01-08 11:18:00,54.0,46.9,30.26,North,359,5.0,9.0,77,0.00,,,0.01,meteohub,2013-01-08 19:18:00,
2013-01-08 11:23:00,54.1,47.1,30.26,NW,312,5.0,9.0,77,0.00,,,0.01,meteohub,2013-01-08 19:23:00,
2013-01-08 11:28:00,54.3,47.3,30.26,NW,317,7.0,9.0,77,0.00,,,0.01,meteohub,2013-01-08 19:28:00,
2013-01-08 11:33:00,54.5,47.5,30.26,NW,306,8.0,10.0,77,0.00,,,0.01,meteohub,2013-01-08 19:33:00,
2013-01-08 11:38:00,54.1,47.1,30.25,WNW,303,8.0,11.0,77,0.00,,,0.01,meteohub,2013-01-08 19:38:00,
2013-01-08 11:43:00,54.1,47.1,30.25,WNW,290,8.0,11.0,77,0.00,,,0.01,meteohub,2013-01-08 19:43:00,
2013-01-08 11:48:00,54.1,46.8,30.25,North,359,5.0,11.0,76,0.00,,,0.01,meteohub,2013-01-08 19:48:00,
2013-01-08 11:53:00,54.7,47.3,30.25,NW,312,5.0,12.0,76,0.00,,,0.01,meteohub,2013-01-08 19:53:00,
2013-01-08 11:58:00,55.0,47.3,30.24,NW,325,7.0,12.0,75,0.00,,,0.01,meteohub,2013-01-08 19:58:00,
2013-01-08 12:03:00,55.2,47.5,30.24,NW,311,4.0,12.0,75,0.00,,,0.01,meteohub,2013-01-08 20:03:00,
2013-01-08 12:08:00,55.2,47.1,30.24,WNW,301,11.0,11.0,74,0.00,,,0.01,meteohub,2013-01-08 20:08:00,
2013-01-08 12:13:00,54.3,46.6,30.23,North,359,7.0,11.0,75,0.00,,,0.01,meteohub,2013-01-08 20:13:00,
2013-01-08 12:18:00,54.1,46.8,30.23,WNW,286,8.0,12.0,76,0.00,,,0.01,meteohub,2013-01-08 20:18:00,
2013-01-08 12:23:00,54.0,46.9,30.23,North,359,8.0,12.0,77,0.00,,,0.01,meteohub,2013-01-08 20:23:00,
2013-01-08 12:28:00,54.3,46.9,30.22,NW,305,7.0,12.0,76,0.00,,,0.01,meteohub,2013-01-08 20:28:00,
2013-01-08 12:33:00,55.0,46.6,30.22,North,359,10.0,12.0,73,0.00,,,0.01,meteohub,2013-01-08 20:33:00,
2013-01-08 12:38:00,55.6,46.8,30.23,NNW,337,6.0,12.0,72,0.00,,,0.01,meteohub,2013-01-08 20:38:00,
2013-01-08 12:43:00,55.6,46.4,30.22,NNW,337,8.0,12.0,71,0.00,,,0.01,meteohub,2013-01-08 20:43:00,
2013-01-08 12:49:00,55.6,46.4,30.22,NNW,343,6.0,13.0,71,0.00,,,0.01,meteohub,2013-01-08 20:49:00,
2013-01-08 12:54:00,55.9,46.2,30.22,NNE,16,7.0,13.0,70,0.00,,,0.01,meteohub,2013-01-08 20:54:00,
2013-01-08 12:59:00,56.1,46.4,30.22,NE,38,8.0,10.0,70,0.00,,,0.01,meteohub,2013-01-08 20:59:00,
2013-01-08 13:04:00,56.5,46.4,30.22,NNE,14,7.0,10.0,69,0.00,,,0.01,meteohub,2013-01-08 21:04:00,
2013-01-08 13:09:00,56.5,46.4,30.22,North,359,5.0,10.0,69,0.00,,,0.01,meteohub,2013-01-08 21:09:00,
2013-01-08 13:14:00,56.7,46.6,30.22,North,359,5.0,10.0,69,0.00,,,0.01,meteohub,2013-01-08 21:14:00,
2013-01-08 13:19:00,56.8,46.8,30.22,North,354,4.0,9.0,69,0.00,,,0.01,meteohub,2013-01-08 21:19:00,
2013-01-08 13:24:00,57.0,46.9,30.22,North,350,5.0,9.0,69,0.00,,,0.01,meteohub,2013-01-08 21:24:00,
2013-01-08 13:29:00,57.4,46.9,30.21,North,359,5.0,9.0,68,0.00,,,0.01,meteohub,2013-01-08 21:29:00,
2013-01-08 13:34:00,57.6,47.1,30.21,North,359,5.0,9.0,68,0.00,,,0.01,meteohub,2013-01-08 21:34:00,
2013-01-08 13:39:00,57.6,46.8,30.20,North,359,4.0,9.0,67,0.00,,,0.01,meteohub,2013-01-08 21:39:00,
2013-01-08 13:44:00,57.7,46.9,30.20,North,359,6.0,10.0,67,0.00,,,0.01,meteohub,2013-01-08 21:44:00,
2013-01-08 13:49:00,57.9,47.5,30.20,NNE,13,4.0,10.0,68,0.00,,,0.01,meteohub,2013-01-08 21:49:00,
2013-01-08 13:54:00,58.5,47.5,30.20,North,4,5.0,10.0,67,0.00,,,0.01,meteohub,2013-01-08 21:54:00,
2013-01-08 13:59:00,58.6,47.7,30.20,NNE,18,4.0,8.0,67,0.00,,,0.01,meteohub,2013-01-08 21:59:00,
2013-01-08 14:04:00,58.6,47.7,30.20,NNE,19,6.0,8.0,67,0.00,,,0.01,meteohub,2013-01-08 22:04:00,
2013-01-08 14:09:00,58.6,47.3,30.20,NNE,31,6.0,8.0,66,0.00,,,0.01,meteohub,2013-01-08 22:09:00,
2013-01-08 14:14:00,58.8,47.5,30.20,NNW,345,7.0,8.0,66,0.00,,,0.01,meteohub,2013-01-08 22:14:00,
2013-01-08 14:19:00,59.0,47.7,30.20,North,350,2.0,8.0,66,0.00,,,0.01,meteohub,2013-01-08 22:19:00,
2013-01-08 14:24:00,59.4,48.0,30.20,NNW,330,5.0,8.0,66,0.00,,,0.01,meteohub,2013-01-08 22:24:00,
2013-01-08 14:29:00,59.2,47.8,30.20,NNW,327,5.0,10.0,66,0.00,,,0.01,meteohub,2013-01-08 22:29:00,
2013-01-08 14:34:00,59.4,47.7,30.20,North,359,7.0,10.0,65,0.00,,,0.01,meteohub,2013-01-08 22:34:00,
2013-01-08 14:39:00,59.0,47.7,30.20,NNW,328,5.0,10.0,66,0.00,,,0.01,meteohub,2013-01-08 22:39:00,
2013-01-08 14:44:00,59.0,47.7,30.20,NNW,335,6.0,10.0,66,0.00,,,0.01,meteohub,2013-01-08 22:44:00,
2013-01-08 14:49:00,58.8,47.5,30.21,NW,319,10.0,10.0,66,0.00,,,0.01,meteohub,2013-01-08 22:49:00,
2013-01-08 14:54:00,58.5,47.5,30.21,NW,322,6.0,11.0,67,0.00,,,0.01,meteohub,2013-01-08 22:54:00,
2013-01-08 15:00:00,58.5,47.5,30.20,NNW,330,6.0,11.0,67,0.00,,,0.01,meteohub,2013-01-08 23:00:00,
2013-01-08 15:05:00,58.6,47.7,30.20,NNW,331,8.0,11.0,67,0.00,,,0.01,meteohub,2013-01-08 23:05:00,
2013-01-08 15:10:00,58.5,47.5,30.20,NW,325,7.0,11.0,67,0.00,,,0.01,meteohub,2013-01-08 23:10:00,
2013-01-08 15:15:00,58.8,47.8,30.20,WNW,300,6.0,10.0,67,0.00,,,0.01,meteohub,2013-01-08 23:15:00,
2013-01-08 15:20:00,59.0,48.0,30.20,NNW,337,6.0,10.0,67,0.00,,,0.01,meteohub,2013-01-08 23:20:00,
2013-01-08 15:25:00,59.2,47.8,30.20,NNW,342,4.0,10.0,66,0.00,,,0.01,meteohub,2013-01-08 23:25:00,
2013-01-08 15:30:00,59.2,47.8,30.20,NNW,338,8.0,10.0,66,0.00,,,0.01,meteohub,2013-01-08 23:30:00,
2013-01-08 15:35:00,59.4,48.0,30.20,NNW,329,5.0,10.0,66,0.00,,,0.01,meteohub,2013-01-08 23:35:00,
2013-01-08 15:40:00,59.4,48.0,30.20,North,4,5.0,10.0,66,0.00,,,0.01,meteohub,2013-01-08 23:40:00,
2013-01-08 15:45:00,59.5,48.2,30.19,NNE,31,2.0,8.0,66,0.00,,,0.01,meteohub,2013-01-08 23:45:00,
2013-01-08 15:50:00,59.4,48.0,30.19,NE,34,3.0,8.0,66,0.00,,,0.01,meteohub,2013-01-08 23:50:00,
2013-01-08 15:55:00,59.2,47.5,30.19,ENE,74,9.0,10.0,65,0.00,,,0.01,meteohub,2013-01-08 23:55:00,
2013-01-08 16:00:00,58.8,47.1,30.19,East,83,7.0,10.0,65,0.00,,,0.01,meteohub,2013-01-09 00:00:00,
2013-01-08 16:05:00,58.6,47.3,30.19,ENE,60,5.0,11.0,66,0.00,,,0.00,meteohub,2013-01-09 00:05:00,
2013-01-08 16:10:00,58.6,47.3,30.19,East,89,5.0,11.0,66,0.00,,,0.00,meteohub,2013-01-09 00:10:00,
2013-01-08 16:15:00,58.5,46.8,30.19,East,79,6.0,11.0,65,0.00,,,0.00,meteohub,2013-01-09 00:15:00,
2013-01-08 16:20:00,58.3,47.3,30.19,NE,41,4.0,10.0,67,0.00,,,0.00,meteohub,2013-01-09 00:20:00,
2013-01-08 16:25:00,57.9,46.9,30.19,NE,45,4.0,10.0,67,0.00,,,0.00,meteohub,2013-01-09 00:25:00,
2013-01-08 16:30:00,57.7,46.9,30.19,ENE,62,2.0,9.0,67,0.00,,,0.00,meteohub,2013-01-09 00:30:00,
2013-01-08 16:35:00,57.7,46.9,30.19,ENE,75,7.0,7.0,67,0.00,,,0.00,meteohub,2013-01-09 00:35:00,
2013-01-08 16:40:00,57.6,46.8,30.19,ENE,77,5.0,9.0,67,0.00,,,0.00,meteohub,2013-01-09 00:40:00,
2013-01-08 16:45:00,57.4,46.6,30.19,ENE,60,0.0,9.0,67,0.00,,,0.00,meteohub,2013-01-09 00:45:00,
2013-01-08 16:51:00,57.2,46.4,30.19,ENE,61,1.0,9.0,67,0.00,,,0.00,meteohub,2013-01-09 00:51:00,
2013-01-08 16:56:00,57.0,46.9,30.19,ENE,69,1.0,7.0,69,0.00,,,0.00,meteohub,2013-01-09 00:56:00,
2013-01-08 17:01:00,56.7,46.6,30.18,ENE,64,1.0,5.0,69,0.00,,,0.00,meteohub,2013-01-09 01:01:00,
2013-01-08 17:06:00,56.5,46.8,30.18,ENE,64,0.0,5.0,70,0.00,,,0.00,meteohub,2013-01-09 01:06:00,
2013-01-08 17:11:00,56.1,46.8,30.18,ENE,70,3.0,3.0,71,0.00,,,0.00,meteohub,2013-01-09 01:11:00,
2013-01-08 17:16:00,55.9,46.2,30.18,ENE,60,3.0,4.0,70,0.00,,,0.00,meteohub,2013-01-09 01:16:00,
2013-01-08 17:21:00,55.8,46.0,30.18,ENE,72,2.0,7.0,70,0.00,,,0.00,meteohub,2013-01-09 01:21:00,
2013-01-08 17:26:00,55.4,45.9,30.18,ENE,70,0.0,7.0,70,0.00,,,0.00,meteohub,2013-01-09 01:26:00,
2013-01-08 17:31:00,55.2,46.0,30.19,ENE,70,1.0,7.0,71,0.00,,,0.00,meteohub,2013-01-09 01:31:00,
2013-01-08 17:36:00,55.0,45.9,30.19,ENE,69,0.0,3.0,71,0.00,,,0.00,meteohub,2013-01-09 01:36:00,
2013-01-08 17:41:00,54.7,45.5,30.19,ENE,71,0.0,3.0,71,0.00,,,0.00,meteohub,2013-01-09 01:41:00,
2013-01-08 17:46:00,54.7,45.1,30.19,ENE,70,1.0,3.0,70,0.00,,,0.00,meteohub,2013-01-09 01:46:00,
2013-01-08 17:51:00,54.7,45.1,30.19,ENE,72,1.0,3.0,70,0.00,,,0.00,meteohub,2013-01-09 01:51:00,
2013-01-08 17:56:00,54.7,45.1,30.19,ENE,71,0.0,3.0,70,0.00,,,0.00,meteohub,2013-01-09 01:56:00,
2013-01-08 18:01:00,54.7,44.8,30.19,ENE,70,0.0,2.0,69,0.00,,,0.00,meteohub,2013-01-09 02:01:00,
2013-01-08 18:06:00,54.7,45.5,30.19,ENE,70,0.0,1.0,71,0.00,,,0.00,meteohub,2013-01-09 02:06:00,
2013-01-08 18:11:00,54.5,45.7,30.19,ENE,70,0.0,1.0,72,0.00,,,0.00,meteohub,2013-01-09 02:11:00,
2013-01-08 18:16:00,54.3,45.5,30.19,ENE,70,0.0,1.0,72,0.00,,,0.00,meteohub,2013-01-09 02:16:00,
2013-01-08 18:21:00,54.1,45.7,30.19,ENE,70,0.0,1.0,73,0.00,,,0.00,meteohub,2013-01-09 02:21:00,
2013-01-08 18:26:00,53.8,45.3,30.19,ENE,70,0.0,1.0,73,0.00,,,0.00,meteohub,2013-01-09 02:26:00,
2013-01-08 18:31:00,53.4,45.3,30.19,ENE,72,0.0,1.0,74,0.00,,,0.00,meteohub,2013-01-09 02:31:00,
2013-01-08 18:36:00,53.2,44.8,30.19,ENE,68,0.0,1.0,73,0.00,,,0.00,meteohub,2013-01-09 02:36:00,
2013-01-08 18:41:00,53.1,44.6,30.19,ENE,70,2.0,2.0,73,0.00,,,0.00,meteohub,2013-01-09 02:41:00,
2013-01-08 18:47:00,52.7,44.6,30.19,ENE,70,2.0,3.0,74,0.00,,,0.00,meteohub,2013-01-09 02:47:00,
2013-01-08 18:52:00,52.3,44.2,30.19,ENE,70,1.0,3.0,74,0.00,,,0.00,meteohub,2013-01-09 02:52:00,
2013-01-08 18:57:00,52.3,44.2,30.19,ENE,70,1.0,3.0,74,0.00,,,0.00,meteohub,2013-01-09 02:57:00,
2013-01-08 19:02:00,52.2,44.4,30.19,ENE,70,1.0,3.0,75,0.00,,,0.00,meteohub,2013-01-09 03:02:00,
2013-01-08 19:07:00,51.8,44.1,30.20,ENE,70,0.0,2.0,75,0.00,,,0.00,meteohub,2013-01-09 03:07:00,
2013-01-08 19:12:00,51.6,43.9,30.19,ENE,73,0.0,2.0,75,0.00,,,0.00,meteohub,2013-01-09 03:12:00,
2013-01-08 19:17:00,51.4,44.1,30.19,ENE,72,0.0,3.0,76,0.00,,,0.00,meteohub,2013-01-09 03:17:00,
2013-01-08 19:22:00,51.1,44.1,30.20,ENE,70,1.0,3.0,77,0.00,,,0.00,meteohub,2013-01-09 03:22:00,
2013-01-08 19:27:00,50.5,43.9,30.20,ENE,73,2.0,2.0,78,0.00,,,0.00,meteohub,2013-01-09 03:27:00,
2013-01-08 19:32:00,50.2,43.9,30.21,North,350,2.0,3.0,79,0.00,,,0.00,meteohub,2013-01-09 03:32:00,
2013-01-08 19:37:00,49.6,43.7,30.21,WNW,283,3.0,3.0,80,0.00,,,0.00,meteohub,2013-01-09 03:37:00,
2013-01-08 19:42:00,49.1,43.5,30.21,WNW,283,4.0,6.0,81,0.00,,,0.00,meteohub,2013-01-09 03:42:00,
2013-01-08 19:47:00,48.9,43.7,30.21,WNW,287,2.0,6.0,82,0.00,,,0.00,meteohub,2013-01-09 03:47:00,
2013-01-08 19:52:00,48.9,43.7,30.21,WNW,302,3.0,6.0,82,0.00,,,0.00,meteohub,2013-01-09 03:52:00,
2013-01-08 19:57:00,48.9,43.7,30.21,WNW,303,5.0,5.0,82,0.00,,,0.00,meteohub,2013-01-09 03:57:00,
2013-01-08 20:02:00,48.7,44.1,30.21,NW,308,3.0,7.0,84,0.00,,,0.00,meteohub,2013-01-09 04:02:00,
2013-01-08 20:07:00,48.7,44.4,30.21,NW,320,1.0,7.0,85,0.00,,,0.00,meteohub,2013-01-09 04:07:00,
2013-01-08 20:12:00,48.6,44.2,30.21,NNW,337,3.0,7.0,85,0.00,,,0.00,meteohub,2013-01-09 04:12:00,
2013-01-08 20:17:00,48.2,43.9,30.20,North,9,3.0,6.0,85,0.00,,,0.00,meteohub,2013-01-09 04:17:00,
2013-01-08 20:22:00,48.0,43.7,30.20,North,11,0.0,5.0,85,0.00,,,0.00,meteohub,2013-01-09 04:22:00,
2013-01-08 20:27:00,47.7,43.3,30.19,North,10,0.0,5.0,85,0.00,,,0.00,meteohub,2013-01-09 04:27:00,
2013-01-08 20:32:00,47.5,43.2,30.19,North,10,2.0,5.0,85,0.00,,,0.00,meteohub,2013-01-09 04:32:00,
2013-01-08 20:37:00,47.3,43.0,30.19,North,11,0.0,3.0,85,0.00,,,0.00,meteohub,2013-01-09 04:37:00,
2013-01-08 20:43:00,47.3,43.3,30.19,North,10,1.0,3.0,86,0.00,,,0.00,meteohub,2013-01-09 04:43:00,
2013-01-08 20:48:00,47.5,43.5,30.20,NNW,334,3.0,3.0,86,0.00,,,0.00,meteohub,2013-01-09 04:48:00,
2013-01-08 20:53:00,47.3,43.3,30.20,NW,310,2.0,4.0,86,0.00,,,0.00,meteohub,2013-01-09 04:53:00,
2013-01-08 20:58:00,47.3,43.3,30.20,NW,310,3.0,4.0,86,0.00,,,0.00,meteohub,2013-01-09 04:58:00,
2013-01-08 21:00:00,47.3,43.3,30.20,NW,309,3.0,4.0,86,0.00,,,0.00,meteohub,2013-01-09 05:00:00,
2013-01-08 21:02:00,47.3,43.3,30.20,NW,310,2.0,5.0,86,0.00,,,0.00,meteohub,2013-01-09 05:02:00,
2013-01-08 21:03:00,47.3,43.3,30.20,NW,313,4.0,5.0,86,0.00,,,0.00,meteohub,2013-01-09 05:03:00,
2013-01-08 21:08:00,46.9,43.0,30.20,NW,326,3.0,5.0,86,0.00,,,0.00,meteohub,2013-01-09 05:08:00,
2013-01-08 21:13:00,46.8,42.8,30.20,NNW,328,3.0,5.0,86,0.00,,,0.00,meteohub,2013-01-09 05:13:00,
2013-01-08 21:18:00,46.6,42.6,30.20,NNW,348,3.0,5.0,86,0.00,,,0.00,meteohub,2013-01-09 05:18:00,
2013-01-08 21:23:00,46.2,42.6,30.20,North,349,5.0,7.0,87,0.00,,,0.00,meteohub,2013-01-09 05:23:00,
2013-01-08 21:28:00,46.2,42.6,30.20,NNW,339,5.0,7.0,87,0.00,,,0.00,meteohub,2013-01-09 05:28:00,
2013-01-08 21:33:00,46.2,42.6,30.20,NNW,343,5.0,7.0,87,0.00,,,0.00,meteohub,2013-01-09 05:33:00,
2013-01-08 21:38:00,46.2,42.6,30.20,NNW,337,5.0,7.0,87,0.00,,,0.00,meteohub,2013-01-09 05:38:00,
2013-01-08 21:43:00,46.0,42.4,30.20,NNW,329,5.0,7.0,87,0.00,,,0.00,meteohub,2013-01-09 05:43:00,
2013-01-08 21:48:00,46.0,42.4,30.20,NNW,337,4.0,8.0,87,0.00,,,0.00,meteohub,2013-01-09 05:48:00,
2013-01-08 21:53:00,46.0,42.4,30.21,NNW,334,5.0,8.0,87,0.00,,,0.00,meteohub,2013-01-09 05:53:00,
2013-01-08 21:58:00,46.2,42.8,30.21,NW,322,6.0,8.0,88,0.00,,,0.00,meteohub,2013-01-09 05:58:00,
2013-01-08 22:03:00,46.2,42.8,30.21,NNW,327,5.0,7.0,88,0.00,,,0.00,meteohub,2013-01-09 06:03:00,
2013-01-08 22:08:00,46.2,43.2,30.21,NW,320,6.0,8.0,89,0.00,,,0.00,meteohub,2013-01-09 06:08:00,
2013-01-08 22:13:00,46.6,43.5,30.21,NW,320,5.0,8.0,89,0.00,,,0.00,meteohub,2013-01-09 06:13:00,
2013-01-08 22:18:00,46.8,43.7,30.22,NW,324,6.0,8.0,89,0.00,,,0.00,meteohub,2013-01-09 06:18:00,
2013-01-08 22:23:00,46.8,44.1,30.21,NNW,340,6.0,8.0,90,0.00,,,0.00,meteohub,2013-01-09 06:23:00,
2013-01-08 22:28:00,46.8,44.1,30.21,North,354,6.0,8.0,90,0.00,,,0.00,meteohub,2013-01-09 06:28:00,
2013-01-08 22:33:00,46.6,43.9,30.21,North,8,5.0,7.0,90,0.00,,,0.00,meteohub,2013-01-09 06:33:00,
2013-01-08 22:38:00,46.6,44.1,30.21,North,349,6.0,7.0,91,0.00,,,0.00,meteohub,2013-01-09 06:38:00,
2013-01-08 22:43:00,46.2,43.5,30.21,North,359,8.0,9.0,90,0.00,,,0.00,meteohub,2013-01-09 06:43:00,
2013-01-08 22:48:00,46.0,43.0,30.20,NNW,346,5.0,9.0,89,0.00,,,0.00,meteohub,2013-01-09 06:48:00,
2013-01-08 22:53:00,46.0,43.0,30.20,NNW,337,4.0,9.0,89,0.00,,,0.00,meteohub,2013-01-09 06:53:00,
2013-01-08 22:59:00,46.2,42.8,30.20,NNW,335,7.0,8.0,88,0.00,,,0.00,meteohub,2013-01-09 06:59:00,
2013-01-08 23:04:00,46.0,42.6,30.20,NNW,337,5.0,7.0,88,0.00,,,0.00,meteohub,2013-01-09 07:04:00,
2013-01-08 23:09:00,46.0,42.6,30.20,NNW,338,4.0,8.0,88,0.00,,,0.00,meteohub,2013-01-09 07:09:00,
2013-01-08 23:14:00,45.9,42.4,30.20,NNW,344,6.0,8.0,88,0.00,,,0.00,meteohub,2013-01-09 07:14:00,
2013-01-08 23:19:00,45.9,42.4,30.20,North,349,6.0,8.0,88,0.00,,,0.00,meteohub,2013-01-09 07:19:00,
2013-01-08 23:24:00,45.9,42.3,30.20,NNW,343,2.0,8.0,87,0.00,,,0.00,meteohub,2013-01-09 07:24:00,
2013-01-08 23:29:00,45.9,42.3,30.19,NNW,342,7.0,8.0,87,0.00,,,0.00,meteohub,2013-01-09 07:29:00,
2013-01-08 23:34:00,45.9,42.3,30.20,NNW,332,5.0,9.0,87,0.00,,,0.00,meteohub,2013-01-09 07:34:00,
2013-01-08 23:39:00,45.7,42.1,30.20,NNW,332,7.0,9.0,87,0.00,,,0.00,meteohub,2013-01-09 07:39:00,
2013-01-08 23:44:00,45.7,42.1,30.20,NW,325,7.0,9.0,87,0.00,,,0.00,meteohub,2013-01-09 07:44:00,
2013-01-08 23:49:00,45.7,42.3,30.20,NNW,342,7.0,10.0,88,0.00,,,0.00,meteohub,2013-01-09 07:49:00,
2013-01-08 23:54:00,45.9,42.4,30.21,NNW,338,9.0,10.0,88,0.00,,,0.00,meteohub,2013-01-09 07:54:00,
2013-01-08 23:59:00,46.0,42.6,30.21,NNW,327,8.0,10.0,88,0.00,,,0.00,meteohub,2013-01-09 07:59:00,